sensor_id;sensor_type;location;lat;lon;timestamp;P1;durP1;ratioP1;P2;durP2;ratioP2
42770;SDS011;28426;42.872;25.314;2024-02-28T00:01:21;20.35;;;10.05;;
42770;SDS011;28426;42.872;25.314;2024-02-28T00:03:52;19.17;;;9.98;;
42770;SDS011;28426;42.872;25.314;2024-02-28T00:06:23;21.75;;;11.98;;
42770;SDS011;28426;42.872;25.314;2024-02-28T00:08:56;25.77;;;15.00;;
42770;SDS011;28426;42.872;25.314;2024-02-28T00:11:28;18.83;;;10.20;;
42770;SDS011;28426;42.872;25.314;2024-02-28T00:13:59;23.67;;;10.20;;
42770;SDS011;28426;42.872;25.314;2024-02-28T00:16:30;20.85;;;9.73;;
42770;SDS011;28426;42.872;25.314;2024-02-28T00:19:01;21.52;;;10.63;;
42770;SDS011;28426;42.872;25.314;2024-02-28T00:21:31;18.67;;;9.93;;
42770;SDS011;28426;42.872;25.314;2024-02-28T00:24:05;19.65;;;9.13;;
42770;SDS011;28426;42.872;25.314;2024-02-28T00:26:37;18.40;;;8.82;;
42770;SDS011;28426;42.872;25.314;2024-02-28T00:29:10;23.13;;;10.20;;
42770;SDS011;28426;42.872;25.314;2024-02-28T00:31:41;20.42;;;11.07;;
42770;SDS011;28426;42.872;25.314;2024-02-28T00:34:12;17.17;;;10.10;;
42770;SDS011;28426;42.872;25.314;2024-02-28T00:36:42;16.20;;;9.10;;
42770;SDS011;28426;42.872;25.314;2024-02-28T00:39:24;22.55;;;10.15;;
42770;SDS011;28426;42.872;25.314;2024-02-28T00:41:55;18.83;;;10.23;;
42770;SDS011;28426;42.872;25.314;2024-02-28T00:44:26;17.48;;;9.50;;
42770;SDS011;28426;42.872;25.314;2024-02-28T00:46:57;16.90;;;9.32;;
42770;SDS011;28426;42.872;25.314;2024-02-28T00:49:27;19.85;;;10.40;;
42770;SDS011;28426;42.872;25.314;2024-02-28T00:51:58;18.60;;;10.05;;
42770;SDS011;28426;42.872;25.314;2024-02-28T00:54:31;15.27;;;8.73;;
42770;SDS011;28426;42.872;25.314;2024-02-28T00:57:02;23.08;;;9.18;;
42770;SDS011;28426;42.872;25.314;2024-02-28T00:59:33;15.70;;;8.68;;
42770;SDS011;28426;42.872;25.314;2024-02-28T01:02:04;14.93;;;8.25;;
42770;SDS011;28426;42.872;25.314;2024-02-28T01:04:35;15.63;;;8.40;;
42770;SDS011;28426;42.872;25.314;2024-02-28T01:07:06;13.70;;;8.15;;
42770;SDS011;28426;42.872;25.314;2024-02-28T01:09:39;17.30;;;9.27;;
42770;SDS011;28426;42.872;25.314;2024-02-28T01:12:10;18.55;;;8.70;;
42770;SDS011;28426;42.872;25.314;2024-02-28T01:14:41;14.23;;;7.90;;
42770;SDS011;28426;42.872;25.314;2024-02-28T01:17:11;16.67;;;8.98;;
42770;SDS011;28426;42.872;25.314;2024-02-28T01:19:42;16.33;;;8.90;;
42770;SDS011;28426;42.872;25.314;2024-02-28T01:22:13;16.90;;;8.65;;
42770;SDS011;28426;42.872;25.314;2024-02-28T01:24:46;16.75;;;9.00;;
42770;SDS011;28426;42.872;25.314;2024-02-28T01:27:17;18.88;;;11.02;;
42770;SDS011;28426;42.872;25.314;2024-02-28T01:29:47;19.20;;;9.73;;
42770;SDS011;28426;42.872;25.314;2024-02-28T01:32:20;21.63;;;9.07;;
42770;SDS011;28426;42.872;25.314;2024-02-28T01:34:51;16.55;;;8.30;;
42770;SDS011;28426;42.872;25.314;2024-02-28T01:37:22;21.77;;;9.38;;
42770;SDS011;28426;42.872;25.314;2024-02-28T01:39:55;19.48;;;9.65;;
42770;SDS011;28426;42.872;25.314;2024-02-28T01:42:26;18.33;;;10.38;;
42770;SDS011;28426;42.872;25.314;2024-02-28T01:44:57;16.10;;;8.45;;
42770;SDS011;28426;42.872;25.314;2024-02-28T01:47:29;15.63;;;8.93;;
42770;SDS011;28426;42.872;25.314;2024-02-28T01:50:00;16.52;;;9.00;;
42770;SDS011;28426;42.872;25.314;2024-02-28T01:52:31;16.08;;;8.65;;
42770;SDS011;28426;42.872;25.314;2024-02-28T01:55:05;18.50;;;10.05;;
42770;SDS011;28426;42.872;25.314;2024-02-28T01:57:36;16.93;;;8.13;;
42770;SDS011;28426;42.872;25.314;2024-02-28T02:00:08;15.50;;;8.40;;
42770;SDS011;28426;42.872;25.314;2024-02-28T02:02:41;14.35;;;8.45;;
42770;SDS011;28426;42.872;25.314;2024-02-28T02:05:12;15.05;;;8.18;;
42770;SDS011;28426;42.872;25.314;2024-02-28T02:07:46;18.63;;;8.02;;
42770;SDS011;28426;42.872;25.314;2024-02-28T02:10:20;16.02;;;8.05;;
42770;SDS011;28426;42.872;25.314;2024-02-28T02:12:51;12.57;;;7.05;;
42770;SDS011;28426;42.872;25.314;2024-02-28T02:15:22;14.68;;;7.28;;
42770;SDS011;28426;42.872;25.314;2024-02-28T02:17:53;18.67;;;9.63;;
42770;SDS011;28426;42.872;25.314;2024-02-28T02:20:24;12.60;;;7.25;;
42770;SDS011;28426;42.872;25.314;2024-02-28T02:22:59;12.68;;;7.10;;
42770;SDS011;28426;42.872;25.314;2024-02-28T02:25:30;18.48;;;7.97;;
42770;SDS011;28426;42.872;25.314;2024-02-28T02:28:01;13.95;;;7.43;;
42770;SDS011;28426;42.872;25.314;2024-02-28T02:30:31;19.17;;;8.38;;
42770;SDS011;28426;42.872;25.314;2024-02-28T02:33:02;13.68;;;7.45;;
42770;SDS011;28426;42.872;25.314;2024-02-28T02:35:33;16.10;;;7.45;;
42770;SDS011;28426;42.872;25.314;2024-02-28T02:38:08;14.35;;;7.15;;
42770;SDS011;28426;42.872;25.314;2024-02-28T02:40:38;14.63;;;8.02;;
42770;SDS011;28426;42.872;25.314;2024-02-28T02:43:09;16.67;;;7.93;;
42770;SDS011;28426;42.872;25.314;2024-02-28T02:45:40;13.88;;;7.95;;
42770;SDS011;28426;42.872;25.314;2024-02-28T02:48:11;16.48;;;8.18;;
42770;SDS011;28426;42.872;25.314;2024-02-28T02:50:41;17.83;;;7.90;;
42770;SDS011;28426;42.872;25.314;2024-02-28T02:53:14;17.13;;;8.05;;
42770;SDS011;28426;42.872;25.314;2024-02-28T02:55:46;16.30;;;8.80;;
42770;SDS011;28426;42.872;25.314;2024-02-28T02:58:16;17.33;;;7.85;;
42770;SDS011;28426;42.872;25.314;2024-02-28T03:00:47;14.88;;;8.27;;
42770;SDS011;28426;42.872;25.314;2024-02-28T03:03:18;14.88;;;8.10;;
42770;SDS011;28426;42.872;25.314;2024-02-28T03:05:49;17.00;;;8.40;;
42770;SDS011;28426;42.872;25.314;2024-02-28T03:08:22;20.85;;;9.27;;
42770;SDS011;28426;42.872;25.314;2024-02-28T03:10:53;15.77;;;8.40;;
42770;SDS011;28426;42.872;25.314;2024-02-28T03:13:23;15.40;;;8.73;;
42770;SDS011;28426;42.872;25.314;2024-02-28T03:15:55;17.50;;;8.52;;
42770;SDS011;28426;42.872;25.314;2024-02-28T03:18:26;14.73;;;8.63;;
42770;SDS011;28426;42.872;25.314;2024-02-28T03:20:56;15.40;;;8.38;;
42770;SDS011;28426;42.872;25.314;2024-02-28T03:23:30;19.40;;;8.68;;
42770;SDS011;28426;42.872;25.314;2024-02-28T03:28:33;16.30;;;8.15;;
42770;SDS011;28426;42.872;25.314;2024-02-28T03:31:04;22.15;;;9.10;;
42770;SDS011;28426;42.872;25.314;2024-02-28T03:33:35;15.30;;;8.57;;
42770;SDS011;28426;42.872;25.314;2024-02-28T03:36:06;16.42;;;8.32;;
42770;SDS011;28426;42.872;25.314;2024-02-28T03:38:39;15.52;;;8.13;;
42770;SDS011;28426;42.872;25.314;2024-02-28T03:41:10;17.90;;;8.90;;
42770;SDS011;28426;42.872;25.314;2024-02-28T03:43:40;19.80;;;8.75;;
42770;SDS011;28426;42.872;25.314;2024-02-28T03:46:11;15.10;;;7.65;;
42770;SDS011;28426;42.872;25.314;2024-02-28T03:48:42;16.00;;;8.32;;
42770;SDS011;28426;42.872;25.314;2024-02-28T03:51:13;18.58;;;10.23;;
42770;SDS011;28426;42.872;25.314;2024-02-28T03:53:46;16.67;;;7.93;;
42770;SDS011;28426;42.872;25.314;2024-02-28T03:56:21;15.40;;;7.60;;
42770;SDS011;28426;42.872;25.314;2024-02-28T03:58:53;17.27;;;8.40;;
42770;SDS011;28426;42.872;25.314;2024-02-28T04:01:23;16.20;;;8.63;;
42770;SDS011;28426;42.872;25.314;2024-02-28T04:03:55;13.48;;;8.20;;
42770;SDS011;28426;42.872;25.314;2024-02-28T04:06:25;17.83;;;8.32;;
42770;SDS011;28426;42.872;25.314;2024-02-28T04:08:59;14.85;;;8.52;;
42770;SDS011;28426;42.872;25.314;2024-02-28T04:11:30;15.60;;;8.35;;
42770;SDS011;28426;42.872;25.314;2024-02-28T04:14:01;14.50;;;7.80;;
42770;SDS011;28426;42.872;25.314;2024-02-28T04:16:32;13.48;;;7.97;;
42770;SDS011;28426;42.872;25.314;2024-02-28T04:19:02;14.65;;;7.57;;
42770;SDS011;28426;42.872;25.314;2024-02-28T04:21:33;14.85;;;7.53;;
42770;SDS011;28426;42.872;25.314;2024-02-28T04:24:07;17.75;;;8.05;;
42770;SDS011;28426;42.872;25.314;2024-02-28T04:26:42;15.18;;;8.02;;
42770;SDS011;28426;42.872;25.314;2024-02-28T04:29:12;20.10;;;9.50;;
42770;SDS011;28426;42.872;25.314;2024-02-28T04:31:43;20.35;;;9.48;;
42770;SDS011;28426;42.872;25.314;2024-02-28T04:34:14;18.75;;;9.30;;
42770;SDS011;28426;42.872;25.314;2024-02-28T04:36:48;21.20;;;9.32;;
42770;SDS011;28426;42.872;25.314;2024-02-28T04:39:21;18.33;;;9.75;;
42770;SDS011;28426;42.872;25.314;2024-02-28T04:41:52;17.15;;;11.07;;
42770;SDS011;28426;42.872;25.314;2024-02-28T04:44:23;19.65;;;9.35;;
42770;SDS011;28426;42.872;25.314;2024-02-28T04:46:54;18.73;;;9.65;;
42770;SDS011;28426;42.872;25.314;2024-02-28T04:49:24;18.42;;;9.00;;
42770;SDS011;28426;42.872;25.314;2024-02-28T04:51:55;20.27;;;10.48;;
42770;SDS011;28426;42.872;25.314;2024-02-28T04:54:29;22.85;;;11.10;;
42770;SDS011;28426;42.872;25.314;2024-02-28T04:56:59;17.23;;;9.73;;
42770;SDS011;28426;42.872;25.314;2024-02-28T04:59:30;21.13;;;9.25;;
42770;SDS011;28426;42.872;25.314;2024-02-28T05:02:01;19.10;;;9.45;;
42770;SDS011;28426;42.872;25.314;2024-02-28T05:04:32;16.75;;;9.43;;
42770;SDS011;28426;42.872;25.314;2024-02-28T05:07:03;20.30;;;9.75;;
42770;SDS011;28426;42.872;25.314;2024-02-28T05:09:37;17.80;;;9.55;;
42770;SDS011;28426;42.872;25.314;2024-02-28T05:12:08;19.77;;;9.65;;
42770;SDS011;28426;42.872;25.314;2024-02-28T05:14:39;22.88;;;9.35;;
42770;SDS011;28426;42.872;25.314;2024-02-28T05:17:10;25.20;;;9.27;;
42770;SDS011;28426;42.872;25.314;2024-02-28T05:19:40;17.25;;;9.02;;
42770;SDS011;28426;42.872;25.314;2024-02-28T05:22:11;17.25;;;9.50;;
42770;SDS011;28426;42.872;25.314;2024-02-28T05:24:45;20.25;;;10.30;;
42770;SDS011;28426;42.872;25.314;2024-02-28T05:27:16;26.65;;;10.43;;
42770;SDS011;28426;42.872;25.314;2024-02-28T05:29:47;22.27;;;11.32;;
42770;SDS011;28426;42.872;25.314;2024-02-28T05:32:18;26.80;;;14.60;;
42770;SDS011;28426;42.872;25.314;2024-02-28T05:34:50;25.65;;;13.75;;
42770;SDS011;28426;42.872;25.314;2024-02-28T05:37:20;22.35;;;12.95;;
42770;SDS011;28426;42.872;25.314;2024-02-28T05:39:54;28.35;;;12.82;;
42770;SDS011;28426;42.872;25.314;2024-02-28T05:42:25;32.42;;;14.23;;
42770;SDS011;28426;42.872;25.314;2024-02-28T05:44:56;29.65;;;15.40;;
42770;SDS011;28426;42.872;25.314;2024-02-28T05:47:27;25.17;;;13.23;;
42770;SDS011;28426;42.872;25.314;2024-02-28T05:49:58;30.88;;;17.27;;
42770;SDS011;28426;42.872;25.314;2024-02-28T05:52:29;26.27;;;13.98;;
42770;SDS011;28426;42.872;25.314;2024-02-28T05:55:03;26.15;;;12.50;;
42770;SDS011;28426;42.872;25.314;2024-02-28T05:57:35;28.75;;;12.88;;
42770;SDS011;28426;42.872;25.314;2024-02-28T06:00:07;22.77;;;12.57;;
42770;SDS011;28426;42.872;25.314;2024-02-28T06:02:41;24.67;;;13.48;;
42770;SDS011;28426;42.872;25.314;2024-02-28T06:05:12;23.63;;;14.45;;
42770;SDS011;28426;42.872;25.314;2024-02-28T06:07:43;23.48;;;13.93;;
42770;SDS011;28426;42.872;25.314;2024-02-28T06:10:17;26.45;;;14.00;;
42770;SDS011;28426;42.872;25.314;2024-02-28T06:12:48;31.08;;;13.65;;
42770;SDS011;28426;42.872;25.314;2024-02-28T06:15:19;54.15;;;23.25;;
42770;SDS011;28426;42.872;25.314;2024-02-28T06:17:50;41.83;;;19.20;;
42770;SDS011;28426;42.872;25.314;2024-02-28T06:20:21;30.73;;;16.25;;
42770;SDS011;28426;42.872;25.314;2024-02-28T06:22:51;33.10;;;15.30;;
42770;SDS011;28426;42.872;25.314;2024-02-28T06:25:25;24.45;;;13.68;;
42770;SDS011;28426;42.872;25.314;2024-02-28T06:27:56;19.25;;;10.75;;
42770;SDS011;28426;42.872;25.314;2024-02-28T06:30:27;24.48;;;11.48;;
42770;SDS011;28426;42.872;25.314;2024-02-28T06:32:58;18.83;;;9.00;;
42770;SDS011;28426;42.872;25.314;2024-02-28T06:35:29;20.20;;;9.85;;
42770;SDS011;28426;42.872;25.314;2024-02-28T06:38:00;18.88;;;10.65;;
42770;SDS011;28426;42.872;25.314;2024-02-28T06:40:34;25.10;;;12.75;;
42770;SDS011;28426;42.872;25.314;2024-02-28T06:43:05;25.63;;;9.60;;
42770;SDS011;28426;42.872;25.314;2024-02-28T06:45:35;15.85;;;7.90;;
42770;SDS011;28426;42.872;25.314;2024-02-28T06:48:07;20.20;;;8.23;;
42770;SDS011;28426;42.872;25.314;2024-02-28T06:50:38;24.83;;;8.88;;
42770;SDS011;28426;42.872;25.314;2024-02-28T06:53:08;21.10;;;8.63;;
42770;SDS011;28426;42.872;25.314;2024-02-28T06:55:42;19.55;;;8.77;;
42770;SDS011;28426;42.872;25.314;2024-02-28T06:58:15;15.13;;;7.82;;
42770;SDS011;28426;42.872;25.314;2024-02-28T07:00:46;27.17;;;8.57;;
42770;SDS011;28426;42.872;25.314;2024-02-28T07:03:22;12.00;;;7.93;;
42770;SDS011;28426;42.872;25.314;2024-02-28T07:05:53;22.77;;;8.98;;
42770;SDS011;28426;42.872;25.314;2024-02-28T07:08:24;15.57;;;8.70;;
42770;SDS011;28426;42.872;25.314;2024-02-28T07:10:58;22.50;;;9.35;;
42770;SDS011;28426;42.872;25.314;2024-02-28T07:13:29;32.97;;;12.60;;
42770;SDS011;28426;42.872;25.314;2024-02-28T07:16:00;20.75;;;8.35;;
42770;SDS011;28426;42.872;25.314;2024-02-28T07:18:31;24.80;;;9.15;;
42770;SDS011;28426;42.872;25.314;2024-02-28T07:21:02;19.73;;;9.23;;
42770;SDS011;28426;42.872;25.314;2024-02-28T07:23:34;19.38;;;8.95;;
42770;SDS011;28426;42.872;25.314;2024-02-28T07:26:07;17.92;;;9.75;;
42770;SDS011;28426;42.872;25.314;2024-02-28T07:28:52;25.02;;;11.88;;
42770;SDS011;28426;42.872;25.314;2024-02-28T07:31:22;25.58;;;12.40;;
42770;SDS011;28426;42.872;25.314;2024-02-28T07:33:53;24.70;;;12.07;;
42770;SDS011;28426;42.872;25.314;2024-02-28T07:36:24;24.95;;;12.57;;
42770;SDS011;28426;42.872;25.314;2024-02-28T07:38:55;30.20;;;14.07;;
42770;SDS011;28426;42.872;25.314;2024-02-28T07:41:29;19.83;;;12.32;;
42770;SDS011;28426;42.872;25.314;2024-02-28T07:43:59;28.02;;;12.50;;
42770;SDS011;28426;42.872;25.314;2024-02-28T07:46:31;22.00;;;12.80;;
42770;SDS011;28426;42.872;25.314;2024-02-28T07:49:02;23.88;;;13.10;;
42770;SDS011;28426;42.872;25.314;2024-02-28T07:51:32;31.05;;;13.45;;
42770;SDS011;28426;42.872;25.314;2024-02-28T07:54:04;30.60;;;13.80;;
42770;SDS011;28426;42.872;25.314;2024-02-28T07:56:37;16.77;;;9.88;;
42770;SDS011;28426;42.872;25.314;2024-02-28T07:59:08;20.70;;;10.48;;
42770;SDS011;28426;42.872;25.314;2024-02-28T08:01:39;17.65;;;9.82;;
42770;SDS011;28426;42.872;25.314;2024-02-28T08:04:10;17.50;;;8.57;;
42770;SDS011;28426;42.872;25.314;2024-02-28T08:06:40;18.58;;;8.20;;
42770;SDS011;28426;42.872;25.314;2024-02-28T08:09:11;10.68;;;7.47;;
42770;SDS011;28426;42.872;25.314;2024-02-28T08:11:45;14.30;;;8.60;;
42770;SDS011;28426;42.872;25.314;2024-02-28T08:14:16;11.43;;;6.85;;
42770;SDS011;28426;42.872;25.314;2024-02-28T08:16:48;13.73;;;7.65;;
42770;SDS011;28426;42.872;25.314;2024-02-28T08:19:18;17.08;;;8.30;;
42770;SDS011;28426;42.872;25.314;2024-02-28T08:21:49;18.48;;;8.13;;
42770;SDS011;28426;42.872;25.314;2024-02-28T08:24:20;21.33;;;8.43;;
42770;SDS011;28426;42.872;25.314;2024-02-28T08:26:53;16.35;;;7.25;;
42770;SDS011;28426;42.872;25.314;2024-02-28T08:29:24;13.95;;;7.20;;
42770;SDS011;28426;42.872;25.314;2024-02-28T08:31:55;13.25;;;7.35;;
42770;SDS011;28426;42.872;25.314;2024-02-28T08:34:26;12.68;;;7.32;;
42770;SDS011;28426;42.872;25.314;2024-02-28T08:36:56;12.70;;;7.07;;
42770;SDS011;28426;42.872;25.314;2024-02-28T08:39:27;14.23;;;7.85;;
42770;SDS011;28426;42.872;25.314;2024-02-28T08:42:01;18.10;;;7.82;;
42770;SDS011;28426;42.872;25.314;2024-02-28T08:44:32;14.57;;;7.13;;
42770;SDS011;28426;42.872;25.314;2024-02-28T08:47:04;13.88;;;7.25;;
42770;SDS011;28426;42.872;25.314;2024-02-28T08:49:38;21.23;;;9.02;;
42770;SDS011;28426;42.872;25.314;2024-02-28T08:52:09;13.25;;;6.93;;
42770;SDS011;28426;42.872;25.314;2024-02-28T08:54:40;12.15;;;7.30;;
42770;SDS011;28426;42.872;25.314;2024-02-28T08:57:13;10.80;;;6.68;;
42770;SDS011;28426;42.872;25.314;2024-02-28T08:59:44;16.60;;;6.82;;
42770;SDS011;28426;42.872;25.314;2024-02-28T09:02:19;16.75;;;7.63;;
42770;SDS011;28426;42.872;25.314;2024-02-28T09:04:50;14.10;;;6.97;;
42770;SDS011;28426;42.872;25.314;2024-02-28T09:07:24;15.20;;;6.75;;
42770;SDS011;28426;42.872;25.314;2024-02-28T09:09:55;14.93;;;8.25;;
42770;SDS011;28426;42.872;25.314;2024-02-28T09:12:28;13.30;;;6.70;;
42770;SDS011;28426;42.872;25.314;2024-02-28T09:14:59;11.98;;;7.07;;
42770;SDS011;28426;42.872;25.314;2024-02-28T09:17:31;11.73;;;6.57;;
42770;SDS011;28426;42.872;25.314;2024-02-28T09:20:01;16.27;;;6.15;;
42770;SDS011;28426;42.872;25.314;2024-02-28T09:22:33;13.23;;;6.28;;
42770;SDS011;28426;42.872;25.314;2024-02-28T09:25:05;10.80;;;6.18;;
42770;SDS011;28426;42.872;25.314;2024-02-28T09:27:39;11.10;;;5.32;;
42770;SDS011;28426;42.872;25.314;2024-02-28T09:30:10;12.73;;;4.68;;
42770;SDS011;28426;42.872;25.314;2024-02-28T09:32:42;14.70;;;4.38;;
42770;SDS011;28426;42.872;25.314;2024-02-28T09:35:14;7.85;;;2.90;;
42770;SDS011;28426;42.872;25.314;2024-02-28T09:37:45;6.95;;;3.13;;
42770;SDS011;28426;42.872;25.314;2024-02-28T09:40:16;12.30;;;3.22;;
42770;SDS011;28426;42.872;25.314;2024-02-28T09:42:51;9.20;;;2.72;;
42770;SDS011;28426;42.872;25.314;2024-02-28T09:45:25;8.82;;;2.92;;
42770;SDS011;28426;42.872;25.314;2024-02-28T09:47:58;20.25;;;4.10;;
42770;SDS011;28426;42.872;25.314;2024-02-28T09:50:30;15.07;;;3.65;;
42770;SDS011;28426;42.872;25.314;2024-02-28T09:53:01;12.68;;;2.90;;
42770;SDS011;28426;42.872;25.314;2024-02-28T09:55:36;6.25;;;2.60;;
42770;SDS011;28426;42.872;25.314;2024-02-28T09:58:10;8.07;;;3.22;;
42770;SDS011;28426;42.872;25.314;2024-02-28T10:00:41;16.05;;;3.72;;
42770;SDS011;28426;42.872;25.314;2024-02-28T10:03:13;6.05;;;2.47;;
42770;SDS011;28426;42.872;25.314;2024-02-28T10:05:47;31.88;;;5.07;;
42770;SDS011;28426;42.872;25.314;2024-02-28T10:08:17;7.28;;;2.38;;
42770;SDS011;28426;42.872;25.314;2024-02-28T10:10:48;6.88;;;2.70;;
42770;SDS011;28426;42.872;25.314;2024-02-28T10:13:24;13.52;;;2.50;;
42770;SDS011;28426;42.872;25.314;2024-02-28T10:15:55;7.68;;;2.40;;
42770;SDS011;28426;42.872;25.314;2024-02-28T10:18:27;10.80;;;4.00;;
42770;SDS011;28426;42.872;25.314;2024-02-28T10:20:58;6.97;;;2.90;;
42770;SDS011;28426;42.872;25.314;2024-02-28T10:23:29;5.97;;;2.50;;
42770;SDS011;28426;42.872;25.314;2024-02-28T10:26:00;6.53;;;2.67;;
42770;SDS011;28426;42.872;25.314;2024-02-28T10:28:35;8.88;;;4.65;;
42770;SDS011;28426;42.872;25.314;2024-02-28T10:31:07;6.28;;;2.83;;
42770;SDS011;28426;42.872;25.314;2024-02-28T10:33:38;9.77;;;3.05;;
42770;SDS011;28426;42.872;25.314;2024-02-28T10:36:09;7.55;;;3.00;;
42770;SDS011;28426;42.872;25.314;2024-02-28T10:38:40;8.68;;;2.80;;
42770;SDS011;28426;42.872;25.314;2024-02-28T10:41:11;11.80;;;2.60;;
42770;SDS011;28426;42.872;25.314;2024-02-28T10:43:46;8.73;;;2.88;;
42770;SDS011;28426;42.872;25.314;2024-02-28T10:46:20;6.63;;;2.50;;
42770;SDS011;28426;42.872;25.314;2024-02-28T10:49:03;9.13;;;2.60;;
42770;SDS011;28426;42.872;25.314;2024-02-28T10:51:35;7.50;;;3.05;;
42770;SDS011;28426;42.872;25.314;2024-02-28T10:54:07;5.72;;;2.97;;
42770;SDS011;28426;42.872;25.314;2024-02-28T10:56:41;5.88;;;2.70;;
42770;SDS011;28426;42.872;25.314;2024-02-28T10:59:15;8.50;;;3.08;;
42770;SDS011;28426;42.872;25.314;2024-02-28T11:01:46;8.10;;;2.80;;
42770;SDS011;28426;42.872;25.314;2024-02-28T11:04:18;8.23;;;3.15;;
42770;SDS011;28426;42.872;25.314;2024-02-28T11:06:49;11.32;;;2.75;;
42770;SDS011;28426;42.872;25.314;2024-02-28T11:09:22;8.70;;;2.90;;
42770;SDS011;28426;42.872;25.314;2024-02-28T11:11:55;8.95;;;3.08;;
42770;SDS011;28426;42.872;25.314;2024-02-28T11:14:28;6.82;;;3.35;;
42770;SDS011;28426;42.872;25.314;2024-02-28T11:17:03;6.68;;;3.22;;
42770;SDS011;28426;42.872;25.314;2024-02-28T11:19:35;7.85;;;3.65;;
42770;SDS011;28426;42.872;25.314;2024-02-28T11:22:06;10.20;;;3.70;;
42770;SDS011;28426;42.872;25.314;2024-02-28T11:24:37;10.70;;;4.32;;
42770;SDS011;28426;42.872;25.314;2024-02-28T11:27:11;9.05;;;4.30;;
42770;SDS011;28426;42.872;25.314;2024-02-28T11:29:45;12.13;;;4.40;;
42770;SDS011;28426;42.872;25.314;2024-02-28T11:32:16;9.80;;;4.25;;
42770;SDS011;28426;42.872;25.314;2024-02-28T11:34:47;11.00;;;3.90;;
42770;SDS011;28426;42.872;25.314;2024-02-28T11:37:18;11.20;;;4.05;;
42770;SDS011;28426;42.872;25.314;2024-02-28T11:39:50;7.95;;;3.35;;
42770;SDS011;28426;42.872;25.314;2024-02-28T11:42:21;8.75;;;3.58;;
42770;SDS011;28426;42.872;25.314;2024-02-28T11:44:57;8.60;;;3.13;;
42770;SDS011;28426;42.872;25.314;2024-02-28T11:47:31;7.15;;;3.22;;
42770;SDS011;28426;42.872;25.314;2024-02-28T11:50:03;10.30;;;3.60;;
42770;SDS011;28426;42.872;25.314;2024-02-28T11:52:36;7.65;;;3.42;;
42770;SDS011;28426;42.872;25.314;2024-02-28T11:55:07;10.18;;;2.70;;
42770;SDS011;28426;42.872;25.314;2024-02-28T11:57:38;7.35;;;2.72;;
42770;SDS011;28426;42.872;25.314;2024-02-28T12:00:12;7.13;;;2.67;;
42770;SDS011;28426;42.872;25.314;2024-02-28T12:02:43;7.30;;;2.97;;
42770;SDS011;28426;42.872;25.314;2024-02-28T12:05:18;8.23;;;2.90;;
42770;SDS011;28426;42.872;25.314;2024-02-28T12:07:49;11.55;;;3.13;;
42770;SDS011;28426;42.872;25.314;2024-02-28T12:10:23;8.73;;;2.85;;
42770;SDS011;28426;42.872;25.314;2024-02-28T12:12:53;10.18;;;3.38;;
42770;SDS011;28426;42.872;25.314;2024-02-28T12:15:32;10.35;;;3.28;;
42770;SDS011;28426;42.872;25.314;2024-02-28T12:18:07;8.55;;;3.03;;
42770;SDS011;28426;42.872;25.314;2024-02-28T12:20:38;9.52;;;3.28;;
42770;SDS011;28426;42.872;25.314;2024-02-28T12:23:09;10.43;;;3.05;;
42770;SDS011;28426;42.872;25.314;2024-02-28T12:25:40;8.52;;;3.45;;
42770;SDS011;28426;42.872;25.314;2024-02-28T12:28:11;11.85;;;3.92;;
42770;SDS011;28426;42.872;25.314;2024-02-28T12:30:45;8.95;;;3.35;;
42770;SDS011;28426;42.872;25.314;2024-02-28T12:33:16;8.07;;;3.40;;
42770;SDS011;28426;42.872;25.314;2024-02-28T12:35:47;8.27;;;3.42;;
42770;SDS011;28426;42.872;25.314;2024-02-28T12:38:18;11.40;;;3.38;;
42770;SDS011;28426;42.872;25.314;2024-02-28T12:40:49;10.27;;;3.70;;
42770;SDS011;28426;42.872;25.314;2024-02-28T12:43:21;14.23;;;4.05;;
42770;SDS011;28426;42.872;25.314;2024-02-28T12:45:55;11.77;;;4.47;;
42770;SDS011;28426;42.872;25.314;2024-02-28T12:48:26;6.97;;;3.45;;
42770;SDS011;28426;42.872;25.314;2024-02-28T12:50:58;10.35;;;4.07;;
42770;SDS011;28426;42.872;25.314;2024-02-28T12:53:29;9.23;;;4.07;;
42770;SDS011;28426;42.872;25.314;2024-02-28T12:55:59;8.90;;;3.78;;
42770;SDS011;28426;42.872;25.314;2024-02-28T12:58:30;11.55;;;3.70;;
42770;SDS011;28426;42.872;25.314;2024-02-28T13:01:04;13.73;;;4.05;;
42770;SDS011;28426;42.872;25.314;2024-02-28T13:03:35;10.68;;;4.40;;
42770;SDS011;28426;42.872;25.314;2024-02-28T13:06:06;12.82;;;3.72;;
42770;SDS011;28426;42.872;25.314;2024-02-28T13:08:37;8.48;;;3.72;;
42770;SDS011;28426;42.872;25.314;2024-02-28T13:11:07;7.07;;;3.40;;
42770;SDS011;28426;42.872;25.314;2024-02-28T13:13:38;8.25;;;3.72;;
42770;SDS011;28426;42.872;25.314;2024-02-28T13:16:11;7.38;;;4.18;;
42770;SDS011;28426;42.872;25.314;2024-02-28T13:18:42;8.88;;;3.50;;
42770;SDS011;28426;42.872;25.314;2024-02-28T13:21:13;9.00;;;3.65;;
42770;SDS011;28426;42.872;25.314;2024-02-28T13:23:44;8.48;;;3.75;;
42770;SDS011;28426;42.872;25.314;2024-02-28T13:26:15;8.73;;;4.13;;
42770;SDS011;28426;42.872;25.314;2024-02-28T13:28:48;9.65;;;4.15;;
42770;SDS011;28426;42.872;25.314;2024-02-28T13:31:23;9.15;;;3.78;;
42770;SDS011;28426;42.872;25.314;2024-02-28T13:33:54;8.18;;;3.60;;
42770;SDS011;28426;42.872;25.314;2024-02-28T13:36:24;8.25;;;3.92;;
42770;SDS011;28426;42.872;25.314;2024-02-28T13:38:55;9.10;;;4.03;;
42770;SDS011;28426;42.872;25.314;2024-02-28T13:41:26;8.43;;;3.97;;
42770;SDS011;28426;42.872;25.314;2024-02-28T13:43:57;10.00;;;4.03;;
42770;SDS011;28426;42.872;25.314;2024-02-28T13:46:30;12.57;;;3.78;;
42770;SDS011;28426;42.872;25.314;2024-02-28T13:49:01;9.75;;;3.90;;
42770;SDS011;28426;42.872;25.314;2024-02-28T13:51:32;8.75;;;3.55;;
42770;SDS011;28426;42.872;25.314;2024-02-28T13:54:04;9.60;;;4.03;;
42770;SDS011;28426;42.872;25.314;2024-02-28T13:56:35;9.23;;;3.50;;
42770;SDS011;28426;42.872;25.314;2024-02-28T13:59:05;9.20;;;4.22;;
42770;SDS011;28426;42.872;25.314;2024-02-28T14:01:39;8.38;;;3.60;;
42770;SDS011;28426;42.872;25.314;2024-02-28T14:04:10;8.65;;;3.80;;
42770;SDS011;28426;42.872;25.314;2024-02-28T14:06:41;9.65;;;3.70;;
42770;SDS011;28426;42.872;25.314;2024-02-28T14:09:12;14.07;;;4.47;;
42770;SDS011;28426;42.872;25.314;2024-02-28T14:11:43;14.07;;;6.43;;
42770;SDS011;28426;42.872;25.314;2024-02-28T14:14:13;8.40;;;3.60;;
42770;SDS011;28426;42.872;25.314;2024-02-28T14:16:47;10.57;;;3.78;;
42770;SDS011;28426;42.872;25.314;2024-02-28T14:19:18;8.15;;;3.50;;
42770;SDS011;28426;42.872;25.314;2024-02-28T14:21:48;7.28;;;3.13;;
42770;SDS011;28426;42.872;25.314;2024-02-28T14:24:19;8.10;;;3.40;;
42770;SDS011;28426;42.872;25.314;2024-02-28T14:26:50;10.32;;;3.70;;
42770;SDS011;28426;42.872;25.314;2024-02-28T14:29:21;10.63;;;3.55;;
42770;SDS011;28426;42.872;25.314;2024-02-28T14:31:54;9.20;;;3.47;;
42770;SDS011;28426;42.872;25.314;2024-02-28T14:34:25;11.38;;;3.58;;
42770;SDS011;28426;42.872;25.314;2024-02-28T14:36:58;12.23;;;3.63;;
42770;SDS011;28426;42.872;25.314;2024-02-28T14:39:29;5.97;;;3.00;;
42770;SDS011;28426;42.872;25.314;2024-02-28T14:42:00;8.57;;;3.88;;
42770;SDS011;28426;42.872;25.314;2024-02-28T14:44:30;9.95;;;3.67;;
42770;SDS011;28426;42.872;25.314;2024-02-28T14:47:04;8.20;;;3.70;;
42770;SDS011;28426;42.872;25.314;2024-02-28T14:49:35;9.32;;;3.53;;
42770;SDS011;28426;42.872;25.314;2024-02-28T14:52:06;11.15;;;3.42;;